Airfield :
LOGIN :

Register | Disclaimer

   EN    FR    IT 

 










Legend :    VFR   Marginal VFR   IFR   Intensive IFR   Very Intensive IFR
Visi :
Ceiling :
>= 8 km
>= 3000ft
5 to 8 km
1000 to 3000 ft
1500m to 5 km
500 to 1000 ft
800 to 1500m
200 to 500 ft
< 800m
< 200 ft
Symbols :   Thunderstorms  Fog  Heavy snow  Heavy precipitations  Wind > 20 kt
SIGMETs :     Misc.  Thunderstorms  Icing  Turbulence  Mountain Waves  Volcanic Ashes







- Airport Elevation : 370 ft


EBBE - Beauvechain AB

CURRENT METAR :
  • 221155Z 28003KT 9999 FEW030 SCT250 22/12 Q1012 BLU BLU

EXPIRED METARs :
  • 221125Z VRB02KT 9999 FEW030 SCT200 23/13 Q1013 BLU BLU
  • 221055Z 27003KT 8000 FEW030 SCT250 21/14 Q1013 BLU BLU
  • 221025Z 29003KT 8000 SCT230 22/15 Q1013 BLU BLU
  • 220955Z VRB02KT 9000 FEW140 SCT220 21/15 Q1013 BLU BLU
  • 220925Z 27003KT 9999 FEW140 SCT220 20/14 Q1013 BLU BLU

TAF TAF EBBE
Valid from the 22 at 10:00 until the 22 at 19:00 UTC


220841Z 2210/2219 VRB03KT 9999 FEW030 SCT250
TEMPO 2212/2219 VRB05G25KT 5000 -SHRA SCT030 BKN040
PROB40
TEMPO 2212/2219 VRB05G30KT 3000 -TSRA -TSRAGS SCT025 BKN035
No reported NOTAMs for that airfield.



MET'MAP, your aeronautical weather chart ! - Copyright ORBIFLY December 2007 - Disclaimer

ORBIFLY MET'MAP TEAM :

Programming & Development : Alexandra Zaïnal
Concept & Development : Baudouin d'Aumeries
Co-Development & Prog : Marc-Olivier Méhu
Technical & hardware support : Manuel Goepfert

Contact : metmap@orbifly.com




SOURCES & CREDITS :

   NOAA